sensor_id;sensor_type;location;lat;lon;timestamp;pressure;altitude;pressure_sealevel;temperature;humidity
29935;BME280;19905;53.370;-6.314;2023-06-22T00:00:37;101379.25;;;16.71;100.00
29935;BME280;19905;53.370;-6.314;2023-06-22T00:03:06;101369.03;;;16.86;100.00
29935;BME280;19905;53.370;-6.314;2023-06-22T00:05:35;101362.72;;;16.87;100.00
29935;BME280;19905;53.370;-6.314;2023-06-22T00:08:04;101362.41;;;16.90;100.00
29935;BME280;19905;53.370;-6.314;2023-06-22T00:10:32;101366.38;;;16.95;100.00
29935;BME280;19905;53.370;-6.314;2023-06-22T00:13:03;101367.91;;;16.98;100.00
29935;BME280;19905;53.370;-6.314;2023-06-22T00:15:33;101368.75;;;16.89;100.00
29935;BME280;19905;53.370;-6.314;2023-06-22T00:18:02;101367.09;;;16.78;100.00
29935;BME280;19905;53.370;-6.314;2023-06-22T00:20:30;101371.69;;;16.76;100.00
29935;BME280;19905;53.370;-6.314;2023-06-22T00:22:59;101383.34;;;16.56;100.00
29935;BME280;19905;53.370;-6.314;2023-06-22T00:25:28;101373.50;;;16.56;100.00
29935;BME280;19905;53.370;-6.314;2023-06-22T00:27:57;101386.25;;;16.33;100.00
29935;BME280;19905;53.370;-6.314;2023-06-22T00:30:27;101375.00;;;16.20;100.00
29935;BME280;19905;53.370;-6.314;2023-06-22T00:32:56;101383.16;;;16.28;100.00
29935;BME280;19905;53.370;-6.314;2023-06-22T00:35:25;101381.78;;;16.43;100.00
29935;BME280;19905;53.370;-6.314;2023-06-22T00:37:56;101383.91;;;16.49;100.00
29935;BME280;19905;53.370;-6.314;2023-06-22T00:40:27;101381.50;;;16.37;100.00
29935;BME280;19905;53.370;-6.314;2023-06-22T00:42:57;101381.66;;;16.45;100.00
29935;BME280;19905;53.370;-6.314;2023-06-22T00:45:27;101391.00;;;16.30;100.00
29935;BME280;19905;53.370;-6.314;2023-06-22T00:47:57;101398.50;;;15.95;100.00
29935;BME280;19905;53.370;-6.314;2023-06-22T00:50:29;101402.81;;;15.87;100.00
29935;BME280;19905;53.370;-6.314;2023-06-22T00:53:05;101402.44;;;15.91;100.00
29935;BME280;19905;53.370;-6.314;2023-06-22T00:55:38;101414.97;;;15.80;100.00
29935;BME280;19905;53.370;-6.314;2023-06-22T00:58:11;101407.16;;;15.88;100.00
29935;BME280;19905;53.370;-6.314;2023-06-22T01:00:41;101408.56;;;15.82;100.00
29935;BME280;19905;53.370;-6.314;2023-06-22T01:03:10;101415.38;;;15.75;100.00
29935;BME280;19905;53.370;-6.314;2023-06-22T01:05:40;101418.84;;;15.66;100.00
29935;BME280;19905;53.370;-6.314;2023-06-22T01:08:26;101419.84;;;15.65;100.00
29935;BME280;19905;53.370;-6.314;2023-06-22T01:11:03;101420.56;;;15.67;
29935;BME280;19905;53.370;-6.314;2023-06-22T01:13:50;101426.06;;;15.85;100.00
29935;BME280;19905;53.370;-6.314;2023-06-22T01:16:25;101438.88;;;15.91;100.00
29935;BME280;19905;53.370;-6.314;2023-06-22T01:18:57;101432.28;;;15.85;100.00
29935;BME280;19905;53.370;-6.314;2023-06-22T01:21:28;101427.81;;;15.95;100.00
29935;BME280;19905;53.370;-6.314;2023-06-22T01:24:10;101431.19;;;15.97;100.00
29935;BME280;19905;53.370;-6.314;2023-06-22T01:26:51;101424.31;;;15.95;100.00
29935;BME280;19905;53.370;-6.314;2023-06-22T01:29:24;101433.59;;;16.00;100.00
29935;BME280;19905;53.370;-6.314;2023-06-22T01:31:56;101429.34;;;15.98;100.00
29935;BME280;19905;53.370;-6.314;2023-06-22T01:34:25;101431.88;;;15.48;100.00
29935;BME280;19905;53.370;-6.314;2023-06-22T01:36:55;101447.84;;;15.06;100.00
29935;BME280;19905;53.370;-6.314;2023-06-22T01:39:25;101452.69;;;14.80;100.00
29935;BME280;19905;53.370;-6.314;2023-06-22T01:41:55;101455.00;;;14.73;100.00
29935;BME280;19905;53.370;-6.314;2023-06-22T01:44:26;101469.53;;;15.02;100.00
29935;BME280;19905;53.370;-6.314;2023-06-22T01:46:55;101460.03;;;14.88;100.00
29935;BME280;19905;53.370;-6.314;2023-06-22T01:49:24;101461.84;;;14.87;100.00
29935;BME280;19905;53.370;-6.314;2023-06-22T01:51:52;101459.94;;;14.89;100.00
29935;BME280;19905;53.370;-6.314;2023-06-22T01:54:22;101460.00;;;14.99;100.00
29935;BME280;19905;53.370;-6.314;2023-06-22T01:56:51;101456.06;;;15.14;100.00
29935;BME280;19905;53.370;-6.314;2023-06-22T01:59:26;101466.25;;;15.30;100.00
29935;BME280;19905;53.370;-6.314;2023-06-22T02:02:00;101469.19;;;15.27;100.00
29935;BME280;19905;53.370;-6.314;2023-06-22T02:04:34;101466.53;;;15.27;100.00
29935;BME280;19905;53.370;-6.314;2023-06-22T02:07:09;101466.00;;;15.33;100.00
29935;BME280;19905;53.370;-6.314;2023-06-22T02:09:39;101469.25;;;15.37;100.00
29935;BME280;19905;53.370;-6.314;2023-06-22T02:12:11;101466.34;;;15.40;100.00
29935;BME280;19905;53.370;-6.314;2023-06-22T02:14:43;101471.28;;;15.44;100.00
29935;BME280;19905;53.370;-6.314;2023-06-22T02:17:14;101474.78;;;15.45;100.00
29935;BME280;19905;53.370;-6.314;2023-06-22T02:19:42;101471.28;;;15.44;100.00
29935;BME280;19905;53.370;-6.314;2023-06-22T02:22:11;101479.72;;;15.49;100.00
29935;BME280;19905;53.370;-6.314;2023-06-22T02:24:40;101475.81;;;15.54;100.00
29935;BME280;19905;53.370;-6.314;2023-06-22T02:27:10;101472.56;;;15.50;100.00
29935;BME280;19905;53.370;-6.314;2023-06-22T02:29:41;101481.31;;;15.41;100.00
29935;BME280;19905;53.370;-6.314;2023-06-22T02:32:10;101483.75;;;15.12;100.00
29935;BME280;19905;53.370;-6.314;2023-06-22T02:34:39;101494.78;;;15.07;100.00
29935;BME280;19905;53.370;-6.314;2023-06-22T02:37:07;101494.16;;;15.15;100.00
29935;BME280;19905;53.370;-6.314;2023-06-22T02:39:37;101491.72;;;15.12;100.00
29935;BME280;19905;53.370;-6.314;2023-06-22T02:42:07;101502.38;;;14.80;100.00
29935;BME280;19905;53.370;-6.314;2023-06-22T02:44:37;101500.16;;;14.53;100.00
29935;BME280;19905;53.370;-6.314;2023-06-22T02:47:08;101509.31;;;14.37;100.00
29935;BME280;19905;53.370;-6.314;2023-06-22T02:49:36;101509.22;;;14.16;100.00
29935;BME280;19905;53.370;-6.314;2023-06-22T02:52:05;101511.00;;;14.38;100.00
29935;BME280;19905;53.370;-6.314;2023-06-22T02:54:34;101507.75;;;14.57;100.00
29935;BME280;19905;53.370;-6.314;2023-06-22T02:57:03;101513.03;;;14.68;100.00
29935;BME280;19905;53.370;-6.314;2023-06-22T02:59:32;101513.03;;;14.68;100.00
29935;BME280;19905;53.370;-6.314;2023-06-22T03:02:02;101520.31;;;14.55;100.00
29935;BME280;19905;53.370;-6.314;2023-06-22T03:04:33;101510.75;;;14.64;100.00
29935;BME280;19905;53.370;-6.314;2023-06-22T03:07:02;101510.72;;;14.75;100.00
29935;BME280;19905;53.370;-6.314;2023-06-22T03:09:32;101513.13;;;14.78;100.00
29935;BME280;19905;53.370;-6.314;2023-06-22T03:12:00;101509.81;;;14.54;100.00
29935;BME280;19905;53.370;-6.314;2023-06-22T03:14:30;101508.72;;;14.56;100.00
29935;BME280;19905;53.370;-6.314;2023-06-22T03:16:58;101517.53;;;14.57;100.00
29935;BME280;19905;53.370;-6.314;2023-06-22T03:19:30;101522.13;;;14.21;100.00
29935;BME280;19905;53.370;-6.314;2023-06-22T03:22:01;101527.09;;;14.26;100.00
29935;BME280;19905;53.370;-6.314;2023-06-22T03:24:30;101517.75;;;14.42;100.00
29935;BME280;19905;53.370;-6.314;2023-06-22T03:26:59;101512.56;;;14.52;100.00
29935;BME280;19905;53.370;-6.314;2023-06-22T03:29:32;101516.44;;;14.03;100.00
29935;BME280;19905;53.370;-6.314;2023-06-22T03:32:05;101523.50;;;13.69;100.00
29935;BME280;19905;53.370;-6.314;2023-06-22T03:34:34;101536.38;;;13.51;100.00
29935;BME280;19905;53.370;-6.314;2023-06-22T03:37:05;101535.16;;;13.55;100.00
29935;BME280;19905;53.370;-6.314;2023-06-22T03:39:34;101532.16;;;13.48;100.00
29935;BME280;19905;53.370;-6.314;2023-06-22T03:42:05;101535.88;;;13.46;100.00
29935;BME280;19905;53.370;-6.314;2023-06-22T03:44:34;101539.53;;;13.56;100.00
29935;BME280;19905;53.370;-6.314;2023-06-22T03:47:04;101532.78;;;13.52;100.00
29935;BME280;19905;53.370;-6.314;2023-06-22T03:49:34;101535.63;;;13.38;100.00
29935;BME280;19905;53.370;-6.314;2023-06-22T03:52:05;101549.47;;;13.17;100.00
29935;BME280;19905;53.370;-6.314;2023-06-22T03:54:34;101543.03;;;13.09;100.00
29935;BME280;19905;53.370;-6.314;2023-06-22T03:57:03;101557.09;;;13.46;100.00
29935;BME280;19905;53.370;-6.314;2023-06-22T03:59:31;101549.00;;;13.71;100.00
29935;BME280;19905;53.370;-6.314;2023-06-22T04:02:01;101555.06;;;13.85;100.00
29935;BME280;19905;53.370;-6.314;2023-06-22T04:04:29;101545.19;;;14.09;100.00
29935;BME280;19905;53.370;-6.314;2023-06-22T04:06:58;101546.88;;;14.21;100.00
29935;BME280;19905;53.370;-6.314;2023-06-22T04:09:28;101548.94;;;14.07;100.00
29935;BME280;19905;53.370;-6.314;2023-06-22T04:11:57;101548.31;;;14.14;100.00
29935;BME280;19905;53.370;-6.314;2023-06-22T04:14:26;101554.97;;;14.20;100.00
29935;BME280;19905;53.370;-6.314;2023-06-22T04:16:54;101550.25;;;14.23;100.00
29935;BME280;19905;53.370;-6.314;2023-06-22T04:19:23;101557.38;;;14.23;100.00
29935;BME280;19905;53.370;-6.314;2023-06-22T04:21:52;101559.91;;;14.24;100.00
29935;BME280;19905;53.370;-6.314;2023-06-22T04:24:21;101553.41;;;14.40;100.00
29935;BME280;19905;53.370;-6.314;2023-06-22T04:26:51;101553.69;;;14.48;100.00
29935;BME280;19905;53.370;-6.314;2023-06-22T04:29:22;101555.97;;;14.64;100.00
29935;BME280;19905;53.370;-6.314;2023-06-22T04:31:56;101553.16;;;14.77;100.00
29935;BME280;19905;53.370;-6.314;2023-06-22T04:34:25;101558.22;;;14.80;100.00
29935;BME280;19905;53.370;-6.314;2023-06-22T04:36:54;101554.81;;;14.89;100.00
29935;BME280;19905;53.370;-6.314;2023-06-22T04:39:23;101551.72;;;14.39;100.00
29935;BME280;19905;53.370;-6.314;2023-06-22T04:41:55;101565.97;;;14.38;100.00
29935;BME280;19905;53.370;-6.314;2023-06-22T04:44:27;101565.28;;;14.58;100.00
29935;BME280;19905;53.370;-6.314;2023-06-22T04:46:57;101561.38;;;14.73;100.00
29935;BME280;19905;53.370;-6.314;2023-06-22T04:49:30;101567.41;;;14.87;100.00
29935;BME280;19905;53.370;-6.314;2023-06-22T04:52:04;101555.66;;;15.00;100.00
29935;BME280;19905;53.370;-6.314;2023-06-22T04:54:34;101561.66;;;15.14;100.00
29935;BME280;19905;53.370;-6.314;2023-06-22T04:57:06;101561.59;;;15.25;100.00
29935;BME280;19905;53.370;-6.314;2023-06-22T04:59:37;101562.34;;;15.27;100.00
29935;BME280;19905;53.370;-6.314;2023-06-22T05:02:09;101562.19;;;15.29;100.00
29935;BME280;19905;53.370;-6.314;2023-06-22T05:04:38;101560.38;;;15.29;100.00
29935;BME280;19905;53.370;-6.314;2023-06-22T05:07:07;101581.44;;;15.32;100.00
29935;BME280;19905;53.370;-6.314;2023-06-22T05:09:36;101592.69;;;15.36;100.00
29935;BME280;19905;53.370;-6.314;2023-06-22T05:12:08;101591.09;;;15.44;100.00
29935;BME280;19905;53.370;-6.314;2023-06-22T05:14:37;101580.44;;;15.44;100.00
29935;BME280;19905;53.370;-6.314;2023-06-22T05:17:06;101580.28;;;15.46;100.00
29935;BME280;19905;53.370;-6.314;2023-06-22T05:19:42;101584.41;;;15.50;100.00
29935;BME280;19905;53.370;-6.314;2023-06-22T05:22:12;101592.50;;;15.48;100.00
29935;BME280;19905;53.370;-6.314;2023-06-22T05:24:41;101591.78;;;15.46;100.00
29935;BME280;19905;53.370;-6.314;2023-06-22T05:27:11;101595.88;;;15.50;100.00
29935;BME280;19905;53.370;-6.314;2023-06-22T05:29:40;101597.03;;;15.58;100.00
29935;BME280;19905;53.370;-6.314;2023-06-22T05:32:09;101597.53;;;15.63;100.00
29935;BME280;19905;53.370;-6.314;2023-06-22T05:34:38;101609.78;;;15.65;100.00
29935;BME280;19905;53.370;-6.314;2023-06-22T05:37:07;101608.69;;;15.68;100.00
29935;BME280;19905;53.370;-6.314;2023-06-22T05:39:37;101606.63;;;15.71;100.00
29935;BME280;19905;53.370;-6.314;2023-06-22T05:42:06;101625.81;;;15.75;100.00
29935;BME280;19905;53.370;-6.314;2023-06-22T05:44:38;101628.38;;;15.77;100.00
29935;BME280;19905;53.370;-6.314;2023-06-22T05:47:07;101633.03;;;15.84;100.00
29935;BME280;19905;53.370;-6.314;2023-06-22T05:49:36;101629.44;;;15.85;100.00
29935;BME280;19905;53.370;-6.314;2023-06-22T05:52:05;101630.97;;;15.88;100.00
29935;BME280;19905;53.370;-6.314;2023-06-22T05:54:34;101623.44;;;15.93;100.00
29935;BME280;19905;53.370;-6.314;2023-06-22T05:57:04;101610.31;;;16.01;100.00
29935;BME280;19905;53.370;-6.314;2023-06-22T05:59:32;101615.50;;;16.02;100.00
29935;BME280;19905;53.370;-6.314;2023-06-22T06:02:03;101627.19;;;16.11;100.00
29935;BME280;19905;53.370;-6.314;2023-06-22T06:04:32;101628.56;;;16.26;100.00
29935;BME280;19905;53.370;-6.314;2023-06-22T06:07:03;101611.25;;;16.42;100.00
29935;BME280;19905;53.370;-6.314;2023-06-22T06:09:33;101619.69;;;16.47;100.00
29935;BME280;19905;53.370;-6.314;2023-06-22T06:12:06;101627.59;;;16.58;100.00
29935;BME280;19905;53.370;-6.314;2023-06-22T06:14:37;101627.38;;;16.71;100.00
29935;BME280;19905;53.370;-6.314;2023-06-22T06:17:07;101629.44;;;16.88;100.00
29935;BME280;19905;53.370;-6.314;2023-06-22T06:19:36;101616.84;;;17.00;100.00
29935;BME280;19905;53.370;-6.314;2023-06-22T06:22:07;101619.22;;;17.13;100.00
29935;BME280;19905;53.370;-6.314;2023-06-22T06:24:36;101621.00;;;16.93;100.00
29935;BME280;19905;53.370;-6.314;2023-06-22T06:27:05;101616.53;;;17.03;100.00
29935;BME280;19905;53.370;-6.314;2023-06-22T06:29:35;101620.53;;;17.18;100.00
29935;BME280;19905;53.370;-6.314;2023-06-22T06:32:04;101618.38;;;17.12;100.00
29935;BME280;19905;53.370;-6.314;2023-06-22T06:34:35;101609.38;;;17.13;100.00
29935;BME280;19905;53.370;-6.314;2023-06-22T06:37:04;101610.34;;;17.02;100.00
29935;BME280;19905;53.370;-6.314;2023-06-22T06:39:33;101606.00;;;17.01;100.00
29935;BME280;19905;53.370;-6.314;2023-06-22T06:42:04;101606.59;;;17.05;100.00
29935;BME280;19905;53.370;-6.314;2023-06-22T06:44:35;101605.34;;;17.09;100.00
29935;BME280;19905;53.370;-6.314;2023-06-22T06:47:10;101617.53;;;17.02;100.00
29935;BME280;19905;53.370;-6.314;2023-06-22T06:49:40;101616.72;;;17.11;100.00
29935;BME280;19905;53.370;-6.314;2023-06-22T06:52:11;101616.16;;;17.27;100.00
29935;BME280;19905;53.370;-6.314;2023-06-22T06:54:41;101607.59;;;17.33;100.00
29935;BME280;19905;53.370;-6.314;2023-06-22T06:57:16;101614.22;;;17.29;100.00
29935;BME280;19905;53.370;-6.314;2023-06-22T06:59:47;101615.63;;;17.23;100.00
29935;BME280;19905;53.370;-6.314;2023-06-22T07:02:16;101616.84;;;17.10;100.00
29935;BME280;19905;53.370;-6.314;2023-06-22T07:04:46;101615.28;;;17.07;100.00
29935;BME280;19905;53.370;-6.314;2023-06-22T07:07:16;101621.47;;;17.17;100.00
29935;BME280;19905;53.370;-6.314;2023-06-22T07:09:47;101619.63;;;17.08;100.00
29935;BME280;19905;53.370;-6.314;2023-06-22T07:12:15;101614.19;;;17.19;100.00
29935;BME280;19905;53.370;-6.314;2023-06-22T07:14:45;101612.53;;;17.28;100.00
29935;BME280;19905;53.370;-6.314;2023-06-22T07:17:15;101607.72;;;17.32;100.00
29935;BME280;19905;53.370;-6.314;2023-06-22T07:19:45;101601.97;;;17.36;100.00
29935;BME280;19905;53.370;-6.314;2023-06-22T07:22:14;101613.63;;;17.35;100.00
29935;BME280;19905;53.370;-6.314;2023-06-22T07:24:44;101607.34;;;17.46;100.00
29935;BME280;19905;53.370;-6.314;2023-06-22T07:27:13;101602.97;;;17.35;100.00
29935;BME280;19905;53.370;-6.314;2023-06-22T07:29:43;101610.41;;;17.32;100.00
29935;BME280;19905;53.370;-6.314;2023-06-22T07:32:12;101617.88;;;17.47;100.00
29935;BME280;19905;53.370;-6.314;2023-06-22T07:34:40;101615.34;;;17.56;100.00
29935;BME280;19905;53.370;-6.314;2023-06-22T07:37:12;101620.41;;;17.59;100.00
29935;BME280;19905;53.370;-6.314;2023-06-22T07:39:43;101622.94;;;17.50;100.00
29935;BME280;19905;53.370;-6.314;2023-06-22T07:42:12;101618.88;;;17.56;100.00
29935;BME280;19905;53.370;-6.314;2023-06-22T07:44:46;101619.84;;;17.55;100.00
29935;BME280;19905;53.370;-6.314;2023-06-22T07:47:20;101614.34;;;17.66;100.00
29935;BME280;19905;53.370;-6.314;2023-06-22T07:49:52;101615.47;;;17.64;100.00
29935;BME280;19905;53.370;-6.314;2023-06-22T07:52:23;101610.56;;;17.59;100.00
29935;BME280;19905;53.370;-6.314;2023-06-22T07:54:53;101607.50;;;17.73;100.00
29935;BME280;19905;53.370;-6.314;2023-06-22T07:57:22;101607.63;;;17.82;100.00
29935;BME280;19905;53.370;-6.314;2023-06-22T08:00:03;101604.25;;;17.89;100.00
29935;BME280;19905;53.370;-6.314;2023-06-22T08:02:39;101592.97;;;17.95;100.00
29935;BME280;19905;53.370;-6.314;2023-06-22T08:05:09;101601.69;;;18.07;100.00
29935;BME280;19905;53.370;-6.314;2023-06-22T08:07:49;101595.47;;;18.16;100.00
29935;BME280;19905;53.370;-6.314;2023-06-22T08:10:19;101593.34;;;18.20;100.00
29935;BME280;19905;53.370;-6.314;2023-06-22T08:12:48;101599.66;;;18.19;100.00
29935;BME280;19905;53.370;-6.314;2023-06-22T08:15:17;101593.34;;;18.20;100.00
29935;BME280;19905;53.370;-6.314;2023-06-22T08:17:47;101593.47;;;18.28;100.00
29935;BME280;19905;53.370;-6.314;2023-06-22T08:20:17;101589.66;;;18.31;100.00
29935;BME280;19905;53.370;-6.314;2023-06-22T08:22:53;101591.19;;;18.33;100.00
29935;BME280;19905;53.370;-6.314;2023-06-22T08:25:22;101583.31;;;18.32;100.00
29935;BME280;19905;53.370;-6.314;2023-06-22T08:27:52;101589.31;;;18.43;100.00
29935;BME280;19905;53.370;-6.314;2023-06-22T08:30:22;101599.31;;;18.51;100.00
29935;BME280;19905;53.370;-6.314;2023-06-22T08:32:52;101592.16;;;18.42;100.00
29935;BME280;19905;53.370;-6.314;2023-06-22T08:35:27;101586.22;;;18.48;100.00
29935;BME280;19905;53.370;-6.314;2023-06-22T08:37:59;101583.78;;;18.54;100.00
29935;BME280;19905;53.370;-6.314;2023-06-22T08:40:29;101577.41;;;18.65;100.00
29935;BME280;19905;53.370;-6.314;2023-06-22T08:42:57;101577.22;;;18.76;100.00
29935;BME280;19905;53.370;-6.314;2023-06-22T08:45:28;101580.28;;;18.82;100.00
29935;BME280;19905;53.370;-6.314;2023-06-22T08:47:58;101581.56;;;18.77;100.00
29935;BME280;19905;53.370;-6.314;2023-06-22T08:50:27;101577.50;;;18.73;100.00
29935;BME280;19905;53.370;-6.314;2023-06-22T08:52:57;101576.84;;;18.71;100.00
29935;BME280;19905;53.370;-6.314;2023-06-22T08:55:30;101579.16;;;18.84;100.00
29935;BME280;19905;53.370;-6.314;2023-06-22T08:58:00;101582.56;;;18.76;100.00
29935;BME280;19905;53.370;-6.314;2023-06-22T09:00:29;101576.97;;;18.97;100.00
29935;BME280;19905;53.370;-6.314;2023-06-22T09:03:00;101573.13;;;19.00;100.00
29935;BME280;19905;53.370;-6.314;2023-06-22T09:05:29;101566.16;;;18.89;100.00
29935;BME280;19905;53.370;-6.314;2023-06-22T09:07:58;101574.34;;;19.05;100.00
29935;BME280;19905;53.370;-6.314;2023-06-22T09:10:28;101580.72;;;19.22;100.00
29935;BME280;19905;53.370;-6.314;2023-06-22T09:12:58;101580.13;;;19.28;100.00
29935;BME280;19905;53.370;-6.314;2023-06-22T09:15:27;101581.50;;;19.33;100.00
29935;BME280;19905;53.370;-6.314;2023-06-22T09:17:56;101584.50;;;19.47;100.00
29935;BME280;19905;53.370;-6.314;2023-06-22T09:20:26;101581.56;;;19.59;100.00
29935;BME280;19905;53.370;-6.314;2023-06-22T09:23:05;101581.44;;;19.60;100.00
29935;BME280;19905;53.370;-6.314;2023-06-22T09:25:45;101579.66;;;19.51;100.00
29935;BME280;19905;53.370;-6.314;2023-06-22T09:28:26;101584.94;;;19.61;100.00
29935;BME280;19905;53.370;-6.314;2023-06-22T09:31:00;101580.00;;;19.66;100.00
29935;BME280;19905;53.370;-6.314;2023-06-22T09:33:30;101576.16;;;19.68;100.00
29935;BME280;19905;53.370;-6.314;2023-06-22T09:35:58;101572.00;;;19.74;100.00
29935;BME280;19905;53.370;-6.314;2023-06-22T09:38:28;101566.03;;;19.80;100.00
29935;BME280;19905;53.370;-6.314;2023-06-22T09:40:58;101563.31;;;19.98;100.00
29935;BME280;19905;53.370;-6.314;2023-06-22T09:43:27;101565.22;;;20.14;100.00
29935;BME280;19905;53.370;-6.314;2023-06-22T09:45:56;101566.56;;;20.10;100.00
29935;BME280;19905;53.370;-6.314;2023-06-22T09:48:24;101562.19;;;20.09;100.00
29935;BME280;19905;53.370;-6.314;2023-06-22T09:50:55;101559.56;;;20.17;100.00
29935;BME280;19905;53.370;-6.314;2023-06-22T09:53:23;101553.03;;;20.19;100.00
29935;BME280;19905;53.370;-6.314;2023-06-22T09:55:52;101556.72;;;20.18;100.00
29935;BME280;19905;53.370;-6.314;2023-06-22T09:58:23;101553.25;;;20.26;100.00
29935;BME280;19905;53.370;-6.314;2023-06-22T10:00:51;101553.13;;;20.10;100.00
29935;BME280;19905;53.370;-6.314;2023-06-22T10:03:21;101559.75;;;20.23;100.00
29935;BME280;19905;53.370;-6.314;2023-06-22T10:05:50;101561.53;;;20.15;100.00
29935;BME280;19905;53.370;-6.314;2023-06-22T10:08:20;101551.97;;;20.46;100.00
29935;BME280;19905;53.370;-6.314;2023-06-22T10:10:49;101552.44;;;20.68;100.00
29935;BME280;19905;53.370;-6.314;2023-06-22T10:13:19;101551.97;;;20.89;100.00
29935;BME280;19905;53.370;-6.314;2023-06-22T10:15:50;101555.22;;;21.09;100.00
29935;BME280;19905;53.370;-6.314;2023-06-22T10:18:19;101550.03;;;21.23;100.00
29935;BME280;19905;53.370;-6.314;2023-06-22T10:20:49;101553.22;;;21.19;100.00
29935;BME280;19905;53.370;-6.314;2023-06-22T10:23:20;101555.47;;;21.40;100.00
29935;BME280;19905;53.370;-6.314;2023-06-22T10:25:49;101555.31;;;21.49;100.00
29935;BME280;19905;53.370;-6.314;2023-06-22T10:28:17;101559.16;;;21.63;100.00
29935;BME280;19905;53.370;-6.314;2023-06-22T10:30:46;101554.91;;;21.93;100.00
29935;BME280;19905;53.370;-6.314;2023-06-22T10:33:16;101553.09;;;21.86;100.00
29935;BME280;19905;53.370;-6.314;2023-06-22T10:35:45;101556.56;;;22.02;100.00
29935;BME280;19905;53.370;-6.314;2023-06-22T10:38:14;101557.47;;;21.87;100.00
29935;BME280;19905;53.370;-6.314;2023-06-22T10:40:42;101557.97;;;21.90;100.00
29935;BME280;19905;53.370;-6.314;2023-06-22T10:43:11;101557.41;;;22.11;100.00
29935;BME280;19905;53.370;-6.314;2023-06-22T10:45:40;101558.56;;;22.25;100.00
29935;BME280;19905;53.370;-6.314;2023-06-22T10:48:08;101555.41;;;21.89;100.00
29935;BME280;19905;53.370;-6.314;2023-06-22T10:50:39;101552.44;;;21.67;100.00
29935;BME280;19905;53.370;-6.314;2023-06-22T10:53:07;101545.31;;;21.99;100.00
29935;BME280;19905;53.370;-6.314;2023-06-22T10:55:36;101559.00;;;21.81;100.00
29935;BME280;19905;53.370;-6.314;2023-06-22T10:58:22;101551.84;;;22.21;100.00
29935;BME280;19905;53.370;-6.314;2023-06-22T11:00:51;101556.72;;;22.25;100.00
29935;BME280;19905;53.370;-6.314;2023-06-22T11:03:20;101561.63;;;21.97;100.00
29935;BME280;19905;53.370;-6.314;2023-06-22T11:05:50;101556.91;;;22.16;100.00
29935;BME280;19905;53.370;-6.314;2023-06-22T11:08:19;101557.69;;;22.41;100.00
29935;BME280;19905;53.370;-6.314;2023-06-22T11:10:47;101555.44;;;22.52;100.00
29935;BME280;19905;53.370;-6.314;2023-06-22T11:13:16;101553.44;;;22.54;100.00
29935;BME280;19905;53.370;-6.314;2023-06-22T11:15:45;101560.69;;;22.46;100.00
29935;BME280;19905;53.370;-6.314;2023-06-22T11:18:14;101554.13;;;22.40;100.00
29935;BME280;19905;53.370;-6.314;2023-06-22T11:20:44;101567.66;;;22.24;100.00
29935;BME280;19905;53.370;-6.314;2023-06-22T11:23:14;101553.78;;;22.43;100.00
29935;BME280;19905;53.370;-6.314;2023-06-22T11:25:44;101552.78;;;22.44;100.00
29935;BME280;19905;53.370;-6.314;2023-06-22T11:28:13;101562.91;;;22.42;100.00
29935;BME280;19905;53.370;-6.314;2023-06-22T11:30:42;101564.97;;;22.07;100.00
29935;BME280;19905;53.370;-6.314;2023-06-22T11:33:11;101561.25;;;22.25;100.00
29935;BME280;19905;53.370;-6.314;2023-06-22T11:35:40;101562.13;;;22.09;100.00
29935;BME280;19905;53.370;-6.314;2023-06-22T11:38:09;101558.66;;;22.48;100.00
29935;BME280;19905;53.370;-6.314;2023-06-22T11:40:39;101558.41;;;22.66;100.00
29935;BME280;19905;53.370;-6.314;2023-06-22T11:43:10;101556.28;;;22.92;100.00
29935;BME280;19905;53.370;-6.314;2023-06-22T11:45:44;101557.66;;;22.80;100.00
29935;BME280;19905;53.370;-6.314;2023-06-22T11:48:14;101558.75;;;22.63;100.00
29935;BME280;19905;53.370;-6.314;2023-06-22T11:50:45;101563.53;;;22.44;100.00
29935;BME280;19905;53.370;-6.314;2023-06-22T11:53:17;101569.09;;;22.43;100.00
29935;BME280;19905;53.370;-6.314;2023-06-22T11:55:47;101563.34;;;22.93;100.00
29935;BME280;19905;53.370;-6.314;2023-06-22T11:58:20;101561.09;;;23.05;100.00
29935;BME280;19905;53.370;-6.314;2023-06-22T12:00:50;101561.06;;;22.35;100.00
29935;BME280;19905;53.370;-6.314;2023-06-22T12:03:20;101563.47;;;22.69;100.00
29935;BME280;19905;53.370;-6.314;2023-06-22T12:05:51;101562.09;;;22.73;100.00
29935;BME280;19905;53.370;-6.314;2023-06-22T12:08:22;101573.88;;;22.32;100.00
29935;BME280;19905;53.370;-6.314;2023-06-22T12:10:54;101576.97;;;22.52;100.00
29935;BME280;19905;53.370;-6.314;2023-06-22T12:13:25;101573.63;;;22.50;100.00
29935;BME280;19905;53.370;-6.314;2023-06-22T12:15:53;101576.28;;;22.98;100.00
29935;BME280;19905;53.370;-6.314;2023-06-22T12:18:22;101575.22;;;22.68;100.00
29935;BME280;19905;53.370;-6.314;2023-06-22T12:20:51;101569.81;;;22.76;100.00
29935;BME280;19905;53.370;-6.314;2023-06-22T12:23:20;101574.56;;;23.05;100.00
29935;BME280;19905;53.370;-6.314;2023-06-22T12:25:50;101573.50;;;23.37;100.00
29935;BME280;19905;53.370;-6.314;2023-06-22T12:28:20;101566.50;;;23.51;100.00
29935;BME280;19905;53.370;-6.314;2023-06-22T12:30:50;101567.91;;;22.93;100.00
29935;BME280;19905;53.370;-6.314;2023-06-22T12:33:19;101573.41;;;22.99;100.00
29935;BME280;19905;53.370;-6.314;2023-06-22T12:35:48;101570.72;;;23.22;100.00
29935;BME280;19905;53.370;-6.314;2023-06-22T12:38:23;101566.50;;;22.66;100.00
29935;BME280;19905;53.370;-6.314;2023-06-22T12:40:52;101571.28;;;22.47;100.00
29935;BME280;19905;53.370;-6.314;2023-06-22T12:43:23;101574.81;;;22.87;100.00
29935;BME280;19905;53.370;-6.314;2023-06-22T12:45:53;101576.97;;;22.52;100.00